createdAt,value
2023-03-16T00:02:03.985Z,-0.90
2023-03-16T00:04:31.508Z,-0.90
2023-03-16T00:06:58.967Z,-0.90
2023-03-16T00:09:30.900Z,-0.90
2023-03-16T00:11:58.921Z,-1.00
2023-03-16T00:14:26.438Z,-1.00
2023-03-16T00:16:53.304Z,-1.00
2023-03-16T00:19:19.892Z,-0.90
2023-03-16T00:21:46.429Z,-0.80
2023-03-16T00:24:13.064Z,-0.90
2023-03-16T00:26:39.776Z,-0.80
2023-03-16T00:29:06.350Z,-0.80
2023-03-16T00:31:33.853Z,-0.80
2023-03-16T00:34:02.854Z,-0.70
2023-03-16T00:36:30.221Z,-0.80
2023-03-16T00:38:56.749Z,-0.70
2023-03-16T00:41:23.278Z,-0.80
2023-03-16T00:43:51.616Z,-0.80
2023-03-16T00:46:18.543Z,-0.80
2023-03-16T00:48:47.018Z,-0.90
2023-03-16T00:51:16.532Z,-0.90
2023-03-16T00:53:45.062Z,-0.80
2023-03-16T00:56:13.618Z,-0.70
2023-03-16T00:58:42.983Z,-0.80
2023-03-16T01:01:16.147Z,-0.80
2023-03-16T01:03:43.104Z,-0.80
2023-03-16T01:06:13.313Z,-0.80
2023-03-16T01:08:40.779Z,-0.90
2023-03-16T01:11:10.394Z,-0.90
2023-03-16T01:13:38.285Z,-0.90
2023-03-16T01:16:05.392Z,-0.90
2023-03-16T01:18:34.144Z,-0.90
2023-03-16T01:21:06.144Z,-0.90
2023-03-16T01:23:33.108Z,-0.80
2023-03-16T01:26:00.298Z,-0.80
2023-03-16T01:28:28.660Z,-0.90
2023-03-16T01:31:00.348Z,-0.80
2023-03-16T01:33:28.393Z,-0.80
2023-03-16T01:35:56.990Z,-0.80
2023-03-16T01:38:24.254Z,-0.90
2023-03-16T01:40:52.244Z,-0.80
2023-03-16T01:43:20.605Z,-0.90
2023-03-16T01:46:18.069Z,-0.90
2023-03-16T01:49:12.269Z,-0.90
2023-03-16T01:51:51.994Z,-0.70
2023-03-16T01:54:32.370Z,-0.80
2023-03-16T01:57:09.464Z,-0.70
2023-03-16T01:59:48.542Z,-0.80
2023-03-16T02:02:19.959Z,-0.90
2023-03-16T02:05:13.062Z,-0.90
2023-03-16T02:07:50.532Z,-0.90
2023-03-16T02:10:20.244Z,-1.00
2023-03-16T02:12:47.428Z,-0.90
2023-03-16T02:15:15.023Z,-0.80
2023-03-16T02:17:44.196Z,-0.80
2023-03-16T02:20:35.837Z,-0.70
2023-03-16T02:23:04.576Z,-0.80
2023-03-16T02:25:46.117Z,-0.80
2023-03-16T02:28:35.522Z,-0.90
2023-03-16T02:31:03.577Z,-0.60
2023-03-16T02:33:33.593Z,-0.70
2023-03-16T02:36:00.383Z,-0.60
2023-03-16T02:38:26.947Z,-0.60
2023-03-16T02:41:10.825Z,-0.70
2023-03-16T02:43:41.582Z,-0.80
2023-03-16T02:46:08.777Z,-0.80
2023-03-16T02:48:38.308Z,-0.80
2023-03-16T02:51:05.127Z,-0.90
2023-03-16T02:53:31.698Z,-0.80
2023-03-16T02:55:58.249Z,-0.70
2023-03-16T02:58:24.836Z,-0.70
2023-03-16T03:00:51.612Z,-0.60
2023-03-16T03:03:18.796Z,-0.60
2023-03-16T03:05:45.689Z,-0.60
2023-03-16T03:08:12.906Z,-0.50
2023-03-16T03:10:39.802Z,-0.40
2023-03-16T03:13:09.510Z,-0.50
2023-03-16T03:15:36.103Z,-0.50
2023-03-16T03:18:02.898Z,-0.50
2023-03-16T03:20:30.023Z,-0.50
2023-03-16T03:22:56.996Z,-0.50
2023-03-16T03:25:23.789Z,-0.50
2023-03-16T03:27:51.091Z,-0.50
2023-03-16T03:30:20.511Z,-0.50
2023-03-16T03:32:47.190Z,-0.60
2023-03-16T03:35:15.894Z,-0.60
2023-03-16T03:37:44.184Z,-0.60
2023-03-16T03:40:13.071Z,-0.60
2023-03-16T03:42:41.022Z,-0.60
2023-03-16T03:45:08.586Z,-0.60
2023-03-16T03:47:35.238Z,-0.70
2023-03-16T03:50:01.897Z,-0.70
2023-03-16T03:52:29.050Z,-0.80
2023-03-16T03:54:55.652Z,-0.70
2023-03-16T03:57:22.196Z,-0.80
2023-03-16T03:59:48.886Z,-0.80
2023-03-16T04:02:15.967Z,-0.80
2023-03-16T04:04:43.055Z,-0.90
2023-03-16T04:07:10.086Z,-0.80
2023-03-16T04:09:36.752Z,-0.90
2023-03-16T04:12:05.387Z,-0.90
2023-03-16T04:14:31.972Z,-0.90
2023-03-16T04:16:58.723Z,-1.00
2023-03-16T04:19:26.329Z,-0.90
2023-03-16T04:21:53.026Z,-0.90
2023-03-16T04:24:19.872Z,-0.90
2023-03-16T04:26:46.502Z,-0.80
2023-03-16T04:29:14.616Z,-0.90
2023-03-16T04:31:42.366Z,-0.90
2023-03-16T04:34:09.566Z,-1.00
2023-03-16T04:36:36.132Z,-0.90
2023-03-16T04:39:04.617Z,-0.90
2023-03-16T04:41:31.899Z,-1.00
2023-03-16T04:43:58.831Z,-1.00
2023-03-16T04:46:26.840Z,-1.00
2023-03-16T04:48:54.021Z,-1.00
2023-03-16T04:51:21.481Z,-1.00
2023-03-16T04:53:48.115Z,-0.90
2023-03-16T04:56:19.497Z,-1.00
2023-03-16T04:58:47.631Z,-1.00
2023-03-16T05:01:14.801Z,-1.00
2023-03-16T05:03:41.568Z,-0.90
2023-03-16T05:06:08.254Z,-0.90
2023-03-16T05:08:34.799Z,-1.00
2023-03-16T05:11:01.454Z,-1.00
2023-03-16T05:13:28.300Z,-1.00
2023-03-16T05:15:55.018Z,-1.10
2023-03-16T05:18:22.368Z,-1.20
2023-03-16T05:20:53.902Z,-1.20
2023-03-16T05:23:21.423Z,-1.30
2023-03-16T05:25:49.269Z,-1.00
2023-03-16T05:28:16.092Z,-0.90
2023-03-16T05:30:45.104Z,-0.90
2023-03-16T05:33:12.000Z,-1.00
2023-03-16T05:35:38.942Z,-1.10
2023-03-16T05:38:05.649Z,-1.10
2023-03-16T05:40:33.071Z,-1.10
2023-03-16T05:43:00.485Z,-1.10
2023-03-16T05:45:28.098Z,-1.10
2023-03-16T05:47:54.739Z,-1.10
2023-03-16T05:50:21.848Z,-1.20
2023-03-16T05:52:48.589Z,-1.10
2023-03-16T05:55:16.944Z,-1.10
2023-03-16T05:57:44.297Z,-1.10
2023-03-16T06:00:17.294Z,-1.10
2023-03-16T06:02:51.439Z,-1.10
2023-03-16T06:05:19.666Z,-1.10
2023-03-16T06:07:46.261Z,-1.00
2023-03-16T06:10:13.112Z,-1.00
2023-03-16T06:12:39.861Z,-0.90
2023-03-16T06:15:07.846Z,-0.90
2023-03-16T06:17:35.469Z,-0.90
2023-03-16T06:20:02.739Z,-0.80
2023-03-16T06:22:30.249Z,-0.70
2023-03-16T06:24:56.896Z,-0.70
2023-03-16T06:27:26.299Z,-0.50
2023-03-16T06:29:53.114Z,-0.50
2023-03-16T06:32:19.888Z,-0.40
2023-03-16T06:34:46.444Z,-0.30
2023-03-16T06:37:13.237Z,-0.20
2023-03-16T06:39:40.482Z,-0.20
2023-03-16T06:42:07.217Z,-0.10
2023-03-16T06:44:33.880Z,-0.10
2023-03-16T06:47:01.097Z,0.00
2023-03-16T06:49:27.696Z,0.10
2023-03-16T06:51:54.309Z,0.20
2023-03-16T06:54:21.284Z,0.20
2023-03-16T06:56:47.876Z,0.30
2023-03-16T06:59:14.427Z,0.30
2023-03-16T07:01:42.130Z,0.40
2023-03-16T07:04:08.853Z,0.50
2023-03-16T07:06:35.563Z,0.50
2023-03-16T07:09:02.241Z,0.60
2023-03-16T07:11:28.801Z,0.70
2023-03-16T07:13:55.364Z,0.80
2023-03-16T07:16:22.064Z,0.90
2023-03-16T07:18:48.772Z,1.00
2023-03-16T07:21:15.499Z,1.10
2023-03-16T07:23:42.057Z,1.20
2023-03-16T07:26:08.714Z,1.30
2023-03-16T07:28:35.513Z,1.40
2023-03-16T07:31:04.118Z,1.50
2023-03-16T07:33:32.312Z,1.60
2023-03-16T07:35:59.194Z,1.70
2023-03-16T07:38:25.873Z,1.90
2023-03-16T07:40:52.484Z,2.10
2023-03-16T07:43:19.312Z,2.10
2023-03-16T07:45:50.134Z,2.10
2023-03-16T07:48:17.020Z,2.10
2023-03-16T07:50:44.143Z,2.10
2023-03-16T07:53:10.933Z,2.20
2023-03-16T08:00:33.738Z,2.70
2023-03-16T08:03:01.961Z,2.70
2023-03-16T08:05:28.670Z,2.80
2023-03-16T08:07:58.713Z,3.00
2023-03-16T08:10:25.573Z,3.00
2023-03-16T08:12:52.405Z,3.10
2023-03-16T08:15:19.349Z,3.20
2023-03-16T08:17:46.511Z,3.40
2023-03-16T08:20:14.843Z,3.50
2023-03-16T08:22:46.240Z,3.60
2023-03-16T08:25:14.504Z,3.70
2023-03-16T08:27:42.700Z,3.80
2023-03-16T08:30:11.773Z,3.80
2023-03-16T08:32:41.894Z,3.90
2023-03-16T08:35:10.994Z,4.10
2023-03-16T08:37:37.585Z,4.30
2023-03-16T08:40:06.465Z,4.40
2023-03-16T08:42:33.104Z,4.70
2023-03-16T08:45:00.882Z,4.70
2023-03-16T08:47:27.560Z,4.70
2023-03-16T08:49:54.181Z,4.70
2023-03-16T08:52:22.256Z,4.70
2023-03-16T08:55:02.263Z,4.80
2023-03-16T08:57:29.821Z,4.80
2023-03-16T08:59:56.404Z,5.00
2023-03-16T09:02:23.018Z,5.10
2023-03-16T09:04:49.864Z,5.30
2023-03-16T09:07:16.597Z,5.20
2023-03-16T09:09:43.860Z,5.30
2023-03-16T09:12:11.018Z,5.40
2023-03-16T09:14:38.410Z,5.60
2023-03-16T09:17:07.596Z,5.60
2023-03-16T09:19:50.003Z,5.80
2023-03-16T09:22:18.315Z,6.00
2023-03-16T09:24:44.975Z,6.10
2023-03-16T09:27:12.024Z,6.30
2023-03-16T09:29:38.652Z,6.50
2023-03-16T09:32:05.331Z,6.70
2023-03-16T09:34:33.299Z,6.80
2023-03-16T09:37:00.472Z,6.90
2023-03-16T09:39:27.313Z,7.50
2023-03-16T09:42:08.427Z,7.00
2023-03-16T09:45:09.107Z,7.10
2023-03-16T09:47:37.480Z,7.20
2023-03-16T09:52:50.557Z,7.50
2023-03-16T09:55:35.890Z,7.60
2023-03-16T09:58:10.436Z,7.60
2023-03-16T10:00:45.130Z,7.70
2023-03-16T10:11:31.462Z,8.30
2023-03-16T10:14:02.630Z,8.50
2023-03-16T10:16:40.993Z,8.40
2023-03-16T10:19:23.265Z,8.30
2023-03-16T10:21:54.346Z,8.50
2023-03-16T10:24:50.143Z,8.80
2023-03-16T10:27:44.594Z,9.10
2023-03-16T10:30:33.161Z,8.80
2023-03-16T10:33:17.365Z,8.80
2023-03-16T10:35:48.897Z,8.70
2023-03-16T10:38:39.966Z,8.80
2023-03-16T10:41:20.198Z,8.80
2023-03-16T10:44:14.728Z,8.70
2023-03-16T10:46:50.774Z,8.80
2023-03-16T10:49:29.289Z,8.80
2023-03-16T10:52:02.796Z,8.80
2023-03-16T10:54:39.857Z,8.60
2023-03-16T10:57:28.328Z,8.70
2023-03-16T10:59:59.512Z,9.00
2023-03-16T11:02:32.802Z,9.10
2023-03-16T11:05:13.040Z,9.20
2023-03-16T11:07:39.657Z,9.20
2023-03-16T11:10:29.647Z,9.10
2023-03-16T11:13:02.573Z,9.30
2023-03-16T11:15:38.229Z,9.60
2023-03-16T11:18:05.547Z,9.60
2023-03-16T11:20:34.269Z,9.90
2023-03-16T11:23:01.778Z,9.70
2023-03-16T11:25:42.897Z,9.90
2023-03-16T11:28:19.780Z,9.80
2023-03-16T11:31:19.216Z,10.10
2023-03-16T11:33:47.215Z,10.20
2023-03-16T11:36:21.665Z,10.10
2023-03-16T11:39:10.771Z,10.20
2023-03-16T11:41:53.479Z,10.30
2023-03-16T11:44:52.400Z,10.30
2023-03-16T11:47:43.556Z,10.40
2023-03-16T11:50:28.357Z,10.50
2023-03-16T11:53:19.475Z,10.60
2023-03-16T12:01:58.210Z,11.10
2023-03-16T12:04:57.743Z,11.10
2023-03-16T12:07:47.721Z,11.10
2023-03-16T12:17:51.423Z,11.30
2023-03-16T12:20:23.287Z,11.30
2023-03-16T12:23:03.293Z,11.40
2023-03-16T12:25:34.755Z,11.50
2023-03-16T12:28:05.401Z,11.10
2023-03-16T12:30:59.231Z,11.10
2023-03-16T12:33:50.567Z,11.10
2023-03-16T12:36:23.690Z,11.10
2023-03-16T12:38:57.018Z,11.40
2023-03-16T12:41:37.978Z,11.60
2023-03-16T12:44:13.413Z,11.70
2023-03-16T12:46:52.481Z,11.60
2023-03-16T12:49:21.004Z,11.70
2023-03-16T12:51:59.718Z,11.40
2023-03-16T12:54:26.425Z,10.90
2023-03-16T12:57:00.873Z,11.10
2023-03-16T12:59:42.727Z,11.10
2023-03-16T13:02:28.566Z,11.20
2023-03-16T13:05:16.389Z,11.30
2023-03-16T13:07:52.554Z,11.20
2023-03-16T13:10:22.793Z,11.40
2023-03-16T13:12:51.448Z,11.50
2023-03-16T13:15:22.130Z,11.30
2023-03-16T13:17:50.955Z,11.50
2023-03-16T13:20:31.955Z,11.70
2023-03-16T13:23:17.194Z,11.70
2023-03-16T13:25:46.213Z,11.30
2023-03-16T13:28:15.394Z,11.20
2023-03-16T13:30:48.553Z,11.20
2023-03-16T13:33:23.001Z,11.30
2023-03-16T13:35:52.348Z,11.30
2023-03-16T13:38:22.703Z,11.30
2023-03-16T13:40:52.931Z,11.40
2023-03-16T13:43:23.782Z,11.60
2023-03-16T13:45:50.758Z,11.60
2023-03-16T13:48:18.156Z,11.70
2023-03-16T13:50:51.930Z,11.80
2023-03-16T13:53:25.101Z,11.80
2023-03-16T13:55:53.517Z,11.70
2023-03-16T13:58:35.869Z,11.70
2023-03-16T14:01:05.013Z,11.90
2023-03-16T14:03:35.982Z,12.10
2023-03-16T14:06:04.548Z,12.10
2023-03-16T14:08:32.365Z,12.70
2023-03-16T14:11:01.352Z,12.10
2023-03-16T14:13:29.020Z,12.00
2023-03-16T14:15:58.844Z,12.00
2023-03-16T14:18:37.648Z,12.00
2023-03-16T14:21:16.322Z,11.80
2023-03-16T14:23:48.225Z,11.80
2023-03-16T14:26:18.499Z,11.70
2023-03-16T14:29:18.591Z,11.60
2023-03-16T14:31:45.766Z,11.70
2023-03-16T14:34:26.894Z,11.50
2023-03-16T14:36:53.704Z,11.70
2023-03-16T14:39:21.538Z,11.80
2023-03-16T14:41:50.406Z,12.10
2023-03-16T14:44:28.041Z,12.10
2023-03-16T14:46:59.245Z,12.10
2023-03-16T14:49:34.730Z,12.10
2023-03-16T14:52:04.802Z,11.90
2023-03-16T14:54:31.423Z,11.80
2023-03-16T14:57:05.352Z,11.80
2023-03-16T14:59:33.110Z,11.90
2023-03-16T15:02:01.560Z,11.80
2023-03-16T15:04:34.391Z,11.80
2023-03-16T15:07:21.632Z,11.90
2023-03-16T15:09:50.457Z,12.00
2023-03-16T15:12:19.629Z,11.90
2023-03-16T15:15:05.985Z,12.10
2023-03-16T15:17:32.749Z,12.20
2023-03-16T15:19:59.518Z,12.30
2023-03-16T15:22:32.277Z,12.20
2023-03-16T15:25:00.134Z,12.30
2023-03-16T15:27:34.371Z,12.20
2023-03-16T15:30:01.799Z,12.20
2023-03-16T15:32:28.471Z,12.20
2023-03-16T15:34:55.278Z,12.10
2023-03-16T15:37:24.298Z,12.00
2023-03-16T15:39:51.430Z,11.90
2023-03-16T15:42:19.075Z,11.90
2023-03-16T15:44:46.698Z,11.80
2023-03-16T15:47:14.231Z,11.80
2023-03-16T15:49:47.707Z,11.70
2023-03-16T15:52:43.183Z,11.60
2023-03-16T15:55:43.840Z,11.60
2023-03-16T15:58:21.327Z,11.70
2023-03-16T16:00:48.767Z,11.60
2023-03-16T16:03:15.451Z,11.60
2023-03-16T16:05:42.305Z,11.50
2023-03-16T16:08:09.189Z,11.40
2023-03-16T16:10:36.129Z,11.30
2023-03-16T16:13:03.073Z,11.30
2023-03-16T16:15:33.995Z,11.40
2023-03-16T16:18:20.417Z,11.30
2023-03-16T16:20:48.278Z,11.30
2023-03-16T16:23:14.973Z,11.20
2023-03-16T16:25:42.340Z,11.20
2023-03-16T16:28:30.709Z,11.10
2023-03-16T16:30:59.574Z,11.10
2023-03-16T16:33:34.491Z,11.10
2023-03-16T16:36:04.278Z,11.10
2023-03-16T16:38:31.915Z,11.10
2023-03-16T16:41:02.720Z,10.90
2023-03-16T16:43:37.634Z,10.90
2023-03-16T16:46:16.425Z,10.70
2023-03-16T16:48:46.387Z,10.70
2023-03-16T16:51:27.760Z,11.20
2023-03-16T16:53:57.314Z,10.60
2023-03-16T16:56:32.480Z,10.40
2023-03-16T16:59:07.497Z,10.40
2023-03-16T17:01:35.151Z,10.20
2023-03-16T17:04:03.397Z,10.20
2023-03-16T17:06:30.550Z,10.10
2023-03-16T17:08:57.547Z,10.10
2023-03-16T17:11:27.416Z,10.10
2023-03-16T17:13:58.030Z,10.80
2023-03-16T17:16:28.628Z,10.00
2023-03-16T17:18:55.608Z,9.90
2023-03-16T17:21:25.154Z,9.90
2023-03-16T17:23:52.791Z,9.80
2023-03-16T17:26:27.877Z,9.70
2023-03-16T17:29:16.000Z,9.60
2023-03-16T17:31:43.040Z,9.50
2023-03-16T17:34:17.913Z,9.50
2023-03-16T17:36:46.126Z,9.30
2023-03-16T17:39:20.803Z,9.30
2023-03-16T17:42:00.145Z,9.10
2023-03-16T17:44:32.515Z,9.00
2023-03-16T17:46:59.373Z,9.00
2023-03-16T17:49:28.550Z,8.90
2023-03-16T17:51:55.800Z,8.90
2023-03-16T17:54:22.694Z,8.80
2023-03-16T17:56:51.567Z,8.80
2023-03-16T17:59:21.058Z,8.90
2023-03-16T18:01:48.554Z,9.00
2023-03-16T18:04:21.061Z,9.00
2023-03-16T18:06:48.568Z,9.00
2023-03-16T18:09:19.890Z,9.00
2023-03-16T18:11:49.776Z,8.90
2023-03-16T18:14:34.803Z,9.00
2023-03-16T18:17:05.274Z,8.90
2023-03-16T18:19:32.394Z,8.80
2023-03-16T18:21:58.970Z,8.80
2023-03-16T18:24:26.858Z,8.80
2023-03-16T18:26:55.146Z,8.70
2023-03-16T18:29:22.473Z,8.70
2023-03-16T18:31:49.904Z,8.70
2023-03-16T18:34:25.973Z,8.70
2023-03-16T18:36:53.720Z,8.70
2023-03-16T18:39:22.022Z,8.60
2023-03-16T18:41:48.724Z,8.60
2023-03-16T18:44:23.702Z,8.70
2023-03-16T18:46:53.722Z,8.60
2023-03-16T18:49:31.617Z,8.60
2023-03-16T18:51:58.399Z,8.50
2023-03-16T18:54:30.406Z,8.50
2023-03-16T18:56:58.827Z,8.30
2023-03-16T18:59:26.244Z,8.30
2023-03-16T19:01:53.433Z,8.40
2023-03-16T19:04:27.178Z,8.30
2023-03-16T19:06:54.857Z,8.20
2023-03-16T19:09:30.033Z,8.30
2023-03-16T19:12:03.330Z,8.30
2023-03-16T19:14:34.953Z,8.30
2023-03-16T19:17:01.699Z,8.30
2023-03-16T19:19:28.459Z,8.40
2023-03-16T19:21:58.061Z,8.20
2023-03-16T19:24:27.372Z,8.20
2023-03-16T19:26:54.376Z,8.20
2023-03-16T19:29:33.825Z,8.10
2023-03-16T19:32:01.345Z,8.00
2023-03-16T19:34:28.660Z,8.00
2023-03-16T19:36:55.500Z,7.90
2023-03-16T19:39:22.161Z,7.90
2023-03-16T19:41:55.819Z,7.80
2023-03-16T19:44:27.759Z,7.70
2023-03-16T19:46:55.007Z,7.70
2023-03-16T19:49:24.173Z,7.70
2023-03-16T19:51:52.697Z,7.70
2023-03-16T19:54:33.264Z,7.70
2023-03-16T19:57:04.340Z,7.60
2023-03-16T19:59:34.167Z,7.60
2023-03-16T20:02:00.893Z,7.50
2023-03-16T20:04:28.235Z,7.40
2023-03-16T20:06:54.897Z,7.40
2023-03-16T20:09:22.504Z,7.30
2023-03-16T20:11:50.081Z,7.30
2023-03-16T20:14:30.657Z,7.20
2023-03-16T20:16:57.748Z,7.00
2023-03-16T20:19:24.547Z,7.00
2023-03-16T20:21:51.273Z,6.90
2023-03-16T20:24:20.739Z,7.00
2023-03-16T20:26:49.604Z,7.00
2023-03-16T20:29:22.210Z,7.00
2023-03-16T20:31:49.080Z,7.00
2023-03-16T20:34:23.004Z,6.90
2023-03-16T20:36:49.593Z,6.80
2023-03-16T20:39:16.167Z,6.80
2023-03-16T20:41:42.829Z,6.70
2023-03-16T20:44:14.298Z,6.60
2023-03-16T20:46:41.526Z,6.60
2023-03-16T20:49:32.285Z,6.60
2023-03-16T20:51:59.251Z,6.60
2023-03-16T20:54:25.863Z,6.50
2023-03-16T20:56:52.624Z,6.50
2023-03-16T20:59:24.638Z,6.60
2023-03-16T21:01:54.430Z,6.60
2023-03-16T21:04:24.209Z,6.60
2023-03-16T21:06:51.365Z,6.60
2023-03-16T21:09:19.224Z,6.70
2023-03-16T21:11:46.746Z,6.40
2023-03-16T21:14:23.836Z,6.40
2023-03-16T21:16:51.508Z,6.40
2023-03-16T21:19:21.600Z,6.40
2023-03-16T21:21:48.555Z,6.40
2023-03-16T21:24:15.306Z,6.60
2023-03-16T21:26:43.507Z,6.40
2023-03-16T21:29:17.892Z,6.20
2023-03-16T21:31:44.495Z,6.20
2023-03-16T21:34:24.167Z,6.20
2023-03-16T21:36:51.100Z,6.20
2023-03-16T21:39:20.424Z,6.20
2023-03-16T21:41:49.758Z,6.20
2023-03-16T21:44:16.680Z,6.20
2023-03-16T21:46:43.466Z,6.20
2023-03-16T21:49:11.752Z,6.20
2023-03-16T21:51:38.373Z,6.20
2023-03-16T21:54:07.885Z,6.10
2023-03-16T21:56:35.961Z,6.10
2023-03-16T21:59:02.813Z,6.20
2023-03-16T22:01:31.585Z,6.20
2023-03-16T22:04:04.339Z,6.20
2023-03-16T22:06:31.438Z,6.20
2023-03-16T22:08:59.612Z,6.20
2023-03-16T22:11:30.735Z,6.20
2023-03-16T22:13:59.174Z,6.20
2023-03-16T22:16:28.556Z,6.30
2023-03-16T22:18:56.842Z,6.20
2023-03-16T22:21:33.180Z,6.20
2023-03-16T22:24:01.204Z,6.20
2023-03-16T22:26:29.506Z,6.30
2023-03-16T22:28:57.164Z,6.30
2023-03-16T22:31:33.369Z,6.40
2023-03-16T22:34:01.209Z,6.30
2023-03-16T22:36:28.514Z,6.20
2023-03-16T22:38:59.798Z,6.10
2023-03-16T22:41:28.118Z,6.10
2023-03-16T22:43:55.495Z,6.00
2023-03-16T22:46:25.102Z,6.00
2023-03-16T22:48:53.603Z,5.90
2023-03-16T22:51:34.395Z,5.90
2023-03-16T22:54:04.621Z,5.90
2023-03-16T22:56:32.564Z,5.90
2023-03-16T22:59:02.706Z,5.90
2023-03-16T23:01:38.359Z,5.80
2023-03-16T23:04:19.036Z,5.90
2023-03-16T23:06:47.974Z,5.90
2023-03-16T23:09:16.485Z,5.90
2023-03-16T23:11:44.616Z,5.90
2023-03-16T23:14:18.247Z,5.90
2023-03-16T23:16:46.058Z,5.80
2023-03-16T23:19:36.483Z,5.70
2023-03-16T23:22:05.497Z,5.70
2023-03-16T23:24:33.611Z,5.60
2023-03-16T23:27:01.120Z,5.60
2023-03-16T23:29:28.463Z,5.60
2023-03-16T23:31:55.144Z,5.60
2023-03-16T23:34:24.179Z,5.50
2023-03-16T23:36:51.398Z,5.50
2023-03-16T23:39:18.482Z,5.70
2023-03-16T23:41:47.452Z,5.60
2023-03-16T23:44:27.138Z,5.60
2023-03-16T23:46:54.251Z,5.70
2023-03-16T23:49:25.488Z,5.70
2023-03-16T23:51:52.966Z,5.60
2023-03-16T23:54:22.981Z,5.60
2023-03-16T23:56:50.547Z,5.40
2023-03-16T23:59:17.686Z,5.30
